Time;durP1;ratioP1;P1;durP2;ratioP2;P2;SDS_P1;SDS_P2;PMS_P1;PMS_P2;Temp;Humidity;BMP_temperature;BMP_pressure;BME280_temperature;BME280_humidity;BME280_pressure;Samples;Min_cycle;Max_cycle;Signal;HPM_P1;HPM_P2
2022/09/14 00:01:11;;;;;;;2.95;2.10;;;;;;;19.70;58.99;99935.88;4991752;28;20201;-76
2022/09/14 00:03:38;;;;;;;2.90;2.30;;;;;;;19.55;59.59;99916.06;4990859;28;20740;-76
2022/09/14 00:06:09;;;;;;;2.00;1.90;;;;;;;19.66;59.78;99928.94;4990960;28;20705;-77
2022/09/14 00:08:38;;;;;;;2.95;2.03;;;;;;;19.68;60.06;99932.41;4991322;28;20233;-78
2022/09/14 00:11:06;;;;;;;6.25;2.13;;;;;;;19.60;60.21;99923.84;4991110;28;20889;-76
2022/09/14 00:13:33;;;;;;;7.35;3.30;;;;;;;19.62;60.58;99943.94;4991721;28;20717;-76
2022/09/14 00:16:04;;;;;;;2.45;1.95;;;;;;;19.55;61.23;99933.63;4991169;28;20209;-76
2022/09/14 00:18:30;;;;;;;2.55;2.30;;;;;;;19.19;61.90;99888.00;4990300;28;20201;-77
2022/09/14 00:21:00;;;;;;;3.78;2.70;;;;;;;19.58;61.66;99942.31;4991670;28;20201;-78
2022/09/14 00:23:28;;;;;;;2.63;2.28;;;;;;;19.53;61.66;99922.25;4991168;28;20210;-76
2022/09/14 00:25:55;;;;;;;3.55;2.42;;;;;;;19.46;62.09;99921.53;4991136;28;20193;-77
2022/09/14 00:28:22;;;;;;;2.42;2.30;;;;;;;19.44;62.68;99933.00;4991527;28;20361;-77
2022/09/14 00:30:49;;;;;;;3.92;2.50;;;;;;;19.46;62.92;99936.44;4990589;28;20256;-76
2022/09/14 00:33:16;;;;;;;8.50;3.08;;;;;;;19.37;63.47;99944.53;4990363;28;20225;-78
2022/09/14 00:35:42;;;;;;;4.90;2.63;;;;;;;19.34;63.91;99932.31;4985564;28;20255;-76
2022/09/14 00:38:09;;;;;;;5.75;2.00;;;;;;;19.35;64.38;99938.44;4991184;28;20201;-78
2022/09/14 00:40:38;;;;;;;2.50;2.40;;;;;;;19.37;64.60;99941.91;4991195;28;20658;-77
2022/09/14 00:43:13;;;;;;;12.93;2.42;;;;;;;19.45;64.78;99939.97;4991540;28;20204;-77
2022/09/14 00:45:40;;;;;;;2.20;2.00;;;;;;;19.18;65.28;99931.81;4990828;28;20215;-76
2022/09/14 00:48:07;;;;;;;2.88;2.67;;;;;;;19.32;65.20;99934.13;4956501;28;20201;-77
2022/09/14 00:50:34;;;;;;;5.22;2.17;;;;;;;19.25;65.83;99945.66;4990884;28;20689;-78
2022/09/14 00:53:01;;;;;;;2.47;2.28;;;;;;;19.12;66.12;99931.91;4990771;28;20709;-76
2022/09/14 00:55:28;;;;;;;4.25;2.53;;;;;;;19.17;66.68;99930.06;4990691;28;20241;-76
2022/09/14 00:57:57;;;;;;;2.53;2.33;;;;;;;19.25;66.43;99951.78;4990512;28;20194;-76
2022/09/14 01:00:25;;;;;;;4.78;2.28;;;;;;;19.25;66.65;99954.44;4990971;28;20196;-76
2022/09/14 01:02:53;;;;;;;9.02;2.80;;;;;;;19.12;66.75;99952.94;4990830;28;20669;-77
2022/09/14 01:05:26;;;;;;;3.05;1.92;;;;;;;19.29;66.43;99947.34;4990236;28;20227;-76
2022/09/14 01:08:07;;;;;;;2.13;2.03;;;;;;;19.29;66.61;99950.84;4990558;28;20756;-75
2022/09/14 01:10:49;;;;;;;2.13;1.92;;;;;;;19.24;67.03;99946.56;4990852;28;20584;-76
2022/09/14 01:13:28;;;;;;;3.00;2.47;;;;;;;19.13;67.62;99944.16;4991250;28;20235;-76
2022/09/14 01:16:03;;;;;;;2.03;1.92;;;;;;;19.16;68.03;99937.97;4968740;28;20786;-75
2022/09/14 01:18:36;;;;;;;2.53;2.20;;;;;;;19.02;68.20;99922.50;4990503;28;20221;-75
2022/09/14 01:21:08;;;;;;;2.22;2.13;;;;;;;19.16;68.12;99938.84;4990849;28;20650;-76
2022/09/14 01:23:42;;;;;;;3.10;2.55;;;;;;;19.16;68.30;99935.34;4990836;28;20198;-76
2022/09/14 01:26:41;;;;;;;1.73;1.63;;;;;;;19.19;68.18;99933.50;4990685;28;20209;-75
2022/09/14 01:29:15;;;;;;;2.22;2.03;;;;;;;19.23;68.33;99937.81;4990917;28;20205;-76
2022/09/14 01:31:50;;;;;;;7.40;2.35;;;;;;;19.06;69.33;99942.56;4991153;28;20224;-77
2022/09/14 01:34:26;;;;;;;3.13;1.95;;;;;;;19.01;69.22;99939.19;4990745;28;20237;-76
2022/09/14 01:36:57;;;;;;;5.97;1.98;;;;;;;19.08;69.30;99945.19;4990382;28;20677;-76
2022/09/14 01:39:24;;;;;;;6.00;2.33;;;;;;;19.00;69.52;99947.97;4989678;28;20201;-76
2022/09/14 01:41:54;;;;;;;6.63;2.20;;;;;;;19.04;69.32;99956.66;4991772;28;20665;-76
2022/09/14 01:44:27;;;;;;;3.67;2.78;;;;;;;19.06;69.11;99954.84;4992582;28;20197;-77
2022/09/14 01:46:57;;;;;;;2.55;2.35;;;;;;;18.99;69.76;99950.63;4994237;28;20206;-75
2022/09/14 01:49:31;;;;;;;3.83;1.80;;;;;;;19.00;69.94;99936.59;4994506;28;20219;-75
2022/09/14 01:52:01;;;;;;;2.30;2.17;;;;;;;19.00;70.32;99937.47;4994361;28;20205;-75
2022/09/14 01:54:33;;;;;;;8.02;2.30;;;;;;;18.98;70.47;99931.34;4994515;28;20202;-75
2022/09/14 01:57:04;;;;;;;2.20;2.10;;;;;;;18.91;70.91;99937.63;4993781;28;20205;-75
2022/09/14 01:59:37;;;;;;;2.33;2.13;;;;;;;18.83;71.51;99917.69;4994164;28;20690;-75
2022/09/14 02:02:10;;;;;;;5.05;2.30;;;;;;;18.85;71.66;99937.78;4993625;28;20665;-75
2022/09/14 02:04:48;;;;;;;2.38;2.22;;;;;;;18.82;71.87;99922.09;4959119;28;20204;-75
2022/09/14 02:07:16;;;;;;;2.97;2.00;;;;;;;18.88;71.75;99934.22;4993312;28;20198;-75
2022/09/14 02:09:44;;;;;;;3.38;2.30;;;;;;;18.82;71.70;99937.84;4993625;28;20563;-75
2022/09/14 02:12:11;;;;;;;2.08;1.90;;;;;;;18.64;72.08;99907.56;4993404;28;20201;-74
2022/09/14 02:14:39;;;;;;;6.22;2.28;;;;;;;18.71;72.32;99905.69;4993795;28;20680;-76
2022/09/14 02:17:07;;;;;;;2.13;2.03;;;;;;;18.67;72.56;99912.75;4993795;28;20646;-75
2022/09/14 02:19:44;;;;;;;2.25;2.05;;;;;;;18.86;72.29;99923.75;4993388;28;20197;-75
2022/09/14 02:22:10;;;;;;;2.80;1.95;;;;;;;18.73;73.23;99920.50;4992873;28;20205;-75
2022/09/14 02:24:37;;;;;;;2.22;2.05;;;;;;;18.75;73.56;99917.84;4993819;28;20206;-75
2022/09/14 02:27:06;;;;;;;2.35;2.25;;;;;;;18.79;73.37;99909.03;4993925;28;20292;-75
2022/09/14 02:29:33;;;;;;;2.60;2.45;;;;;;;18.79;73.77;99914.28;4978368;28;20214;-75
2022/09/14 02:32:13;;;;;;;3.00;2.28;;;;;;;18.78;74.05;99904.66;4974704;28;20198;-75
2022/09/14 02:34:51;;;;;;;2.25;2.15;;;;;;;18.84;74.00;99907.13;4958325;28;20209;-75
2022/09/14 02:37:22;;;;;;;2.45;2.30;;;;;;;18.79;74.84;99901.13;4993265;28;20216;-75
2022/09/14 02:40:00;;;;;;;2.35;2.15;;;;;;;18.91;74.60;99907.88;4986080;28;20208;-75
2022/09/14 02:42:35;;;;;;;2.10;2.00;;;;;;;18.95;74.68;99899.91;4992764;28;20197;-75
2022/09/14 02:45:13;;;;;;;2.35;2.25;;;;;;;18.87;75.12;99900.97;4992725;28;20205;-76
2022/09/14 02:47:49;;;;;;;2.38;2.17;;;;;;;18.92;74.85;99893.84;4992171;28;20776;-75
2022/09/14 02:50:23;;;;;;;2.40;2.08;;;;;;;18.94;75.47;99898.16;4990701;28;20669;-73
2022/09/14 02:52:59;;;;;;;2.22;1.85;;;;;;;18.90;75.07;99896.53;4992224;28;20232;-74
2022/09/14 02:55:31;;;;;;;2.08;1.83;;;;;;;18.91;75.26;99905.25;4957945;28;20292;-74
2022/09/14 02:58:03;;;;;;;2.38;2.00;;;;;;;19.00;73.79;99899.81;4990259;28;20201;-75
2022/09/14 03:00:32;;;;;;;2.33;1.80;;;;;;;19.01;73.32;99906.78;4992414;28;20267;-75
2022/09/14 03:03:00;;;;;;;2.42;1.95;;;;;;;18.93;72.88;99892.94;4992846;28;20632;-74
2022/09/14 03:05:27;;;;;;;2.72;2.10;;;;;;;18.75;72.90;99876.69;4992505;28;20217;-75
2022/09/14 03:07:54;;;;;;;2.70;2.50;;;;;;;18.92;72.75;99902.59;4993256;28;20237;-75
2022/09/14 03:10:21;;;;;;;2.42;2.22;;;;;;;18.95;72.88;99896.41;4992333;28;20209;-75
2022/09/14 03:12:48;;;;;;;3.88;2.15;;;;;;;18.89;71.88;99907.06;4992378;28;20239;-74
2022/09/14 03:15:15;;;;;;;5.85;2.33;;;;;;;18.83;72.05;99890.50;4993181;28;20197;-76
2022/09/14 03:17:46;;;;;;;3.70;2.30;;;;;;;19.04;71.70;99907.59;4958256;28;20205;-75
2022/09/14 03:20:14;;;;;;;5.78;2.47;;;;;;;18.99;71.81;99919.09;4992495;28;20225;-75
2022/09/14 03:22:41;;;;;;;3.10;2.35;;;;;;;18.87;72.68;99930.72;4992554;28;20201;-75
2022/09/14 03:25:08;;;;;;;5.87;2.00;;;;;;;18.95;74.63;99923.53;4991751;28;21002;-76
2022/09/14 03:27:35;;;;;;;2.80;2.22;;;;;;;18.91;71.74;99906.09;4992613;28;20212;-74
2022/09/14 03:30:02;;;;;;;2.70;2.50;;;;;;;18.84;72.77;99904.50;4958111;28;20213;-74
2022/09/14 03:32:28;;;;;;;2.47;2.22;;;;;;;18.93;72.25;99933.25;4973691;28;20220;-76
2022/09/14 03:34:56;;;;;;;3.22;2.20;;;;;;;18.93;71.73;99946.38;4991813;28;20214;-73
2022/09/14 03:37:24;;;;;;;2.95;2.38;;;;;;;18.92;71.97;99954.28;4941801;28;20205;-72
2022/09/14 03:39:51;;;;;;;2.65;2.42;;;;;;;18.79;72.17;99940.53;4992188;28;20197;-72
2022/09/14 03:42:18;;;;;;;3.85;2.40;;;;;;;18.88;71.49;99934.22;4957494;28;20660;-72
2022/09/14 03:44:45;;;;;;;2.38;2.20;;;;;;;18.93;71.72;99951.63;4983373;28;20218;-73
2022/09/14 03:47:11;;;;;;;2.83;2.17;;;;;;;18.90;71.64;99956.09;4989384;28;20741;-72
2022/09/14 03:49:38;;;;;;;2.60;2.40;;;;;;;18.37;72.67;99865.22;4992198;28;20689;-72
2022/09/14 03:52:05;;;;;;;2.15;2.05;;;;;;;18.88;72.00;99958.72;4989497;28;20304;-72
2022/09/14 03:54:33;;;;;;;2.60;2.40;;;;;;;18.79;72.05;99948.41;4991863;28;20233;-72
2022/09/14 03:57:00;;;;;;;7.13;2.25;;;;;;;18.84;72.06;99954.44;4990847;28;20635;-72
2022/09/14 03:59:27;;;;;;;2.33;2.10;;;;;;;18.82;71.54;99964.13;4991626;28;20581;-72
2022/09/14 04:01:53;;;;;;;2.40;2.20;;;;;;;18.88;72.05;99956.09;4991750;28;20220;-72
2022/09/14 04:04:20;;;;;;;1.90;1.80;;;;;;;18.89;71.73;99959.59;4991417;28;20229;-76
2022/09/14 04:06:47;;;;;;;2.10;1.95;;;;;;;18.83;72.19;99960.59;4990690;28;20209;-75
2022/09/14 04:09:14;;;;;;;2.42;2.33;;;;;;;18.71;71.63;99955.59;4988850;28;20233;-75
2022/09/14 04:11:42;;;;;;;3.13;2.88;;;;;;;18.72;73.75;99959.94;4991909;28;20209;-72
2022/09/14 04:14:09;;;;;;;4.45;3.05;;;;;;;18.69;72.93;99962.66;4990951;28;20218;-72
2022/09/14 04:16:36;;;;;;;8.65;2.78;;;;;;;18.69;72.94;99957.38;4957343;28;20625;-72
2022/09/14 04:19:03;;;;;;;4.22;3.05;;;;;;;18.50;73.58;99961.22;4991011;28;20204;-73
2022/09/14 04:21:30;;;;;;;2.22;2.10;;;;;;;18.50;73.80;99950.72;4991612;28;20624;-72
2022/09/14 04:23:58;;;;;;;2.80;2.60;;;;;;;18.64;73.20;99960.09;4991522;28;20201;-73
2022/09/14 04:26:27;;;;;;;2.88;2.55;;;;;;;18.69;73.24;99962.66;4991434;28;20197;-71
2022/09/14 04:28:55;;;;;;;2.90;2.70;;;;;;;18.75;72.62;99967.75;4956087;28;20204;-72
2022/09/14 04:31:22;;;;;;;3.60;2.30;;;;;;;18.90;72.86;99969.22;4986817;28;20201;-72
2022/09/14 04:33:50;;;;;;;2.00;1.90;;;;;;;18.90;71.82;99977.97;4991247;28;20221;-73
2022/09/14 04:36:18;;;;;;;2.22;2.10;;;;;;;19.30;70.72;99946.41;4991219;28;20674;-74
2022/09/14 04:38:45;;;;;;;2.65;2.28;;;;;;;19.80;68.59;99966.31;4991389;28;20205;-74
2022/09/14 04:41:14;;;;;;;2.40;2.20;;;;;;;20.36;64.23;99964.91;4990799;28;20208;-74
2022/09/14 04:43:42;;;;;;;2.17;1.92;;;;;;;20.74;63.90;99974.41;4990457;28;20228;-73
2022/09/14 04:46:13;;;;;;;7.20;2.15;;;;;;;21.06;60.78;99984.88;4990679;28;20662;-73
2022/09/14 04:48:40;;;;;;;7.22;2.50;;;;;;;21.46;60.44;99968.75;4990839;28;20205;-73
2022/09/14 04:51:09;;;;;;;3.25;1.90;;;;;;;22.33;57.93;99993.19;4991075;28;20728;-74
2022/09/14 04:53:37;;;;;;;2.22;2.08;;;;;;;22.87;55.07;99993.03;4991250;28;20229;-74
2022/09/14 04:56:06;;;;;;;8.50;2.78;;;;;;;23.27;53.52;99986.25;4990714;28;20209;-74
2022/09/14 04:58:33;;;;;;;15.10;2.75;;;;;;;23.73;52.97;100001.22;4988975;28;20205;-74
2022/09/14 05:01:01;;;;;;;9.02;2.60;;;;;;;24.22;51.67;100006.31;4988264;28;20212;-74
2022/09/14 05:03:29;;;;;;;4.90;2.50;;;;;;;24.45;50.19;100018.56;4987351;28;20209;-74
2022/09/14 05:06:01;;;;;;;16.13;2.72;;;;;;;24.44;49.62;100011.53;4990281;28;20205;-74
2022/09/14 05:08:28;;;;;;;44.17;20.55;;;;;;;24.00;51.59;99985.09;4991106;28;20232;-76
2022/09/14 05:10:55;;;;;;;29.75;7.15;;;;;;;23.59;52.17;100005.31;4990806;28;20213;-74
2022/09/14 05:13:22;;;;;;;4.72;2.65;;;;;;;22.87;53.54;99987.75;4990142;28;20728;-75
2022/09/14 05:15:49;;;;;;;6.45;2.80;;;;;;;22.52;57.05;100001.34;4990758;28;20566;-75
2022/09/14 05:18:15;;;;;;;7.00;2.75;;;;;;;22.20;57.03;99994.53;4994238;28;20205;-77
2022/09/14 05:20:44;;;;;;;3.40;2.42;;;;;;;21.89;57.73;99975.31;4994769;28;20616;-78
2022/09/14 05:23:11;;;;;;;4.57;2.70;;;;;;;21.88;58.56;100005.25;4994459;28;20210;-78
2022/09/14 05:25:37;;;;;;;3.85;2.38;;;;;;;21.69;58.53;100002.31;4994767;28;20201;-79
2022/09/14 05:28:04;;;;;;;4.72;2.75;;;;;;;21.59;60.12;100006.16;4994214;28;20559;-78
2022/09/14 05:30:31;;;;;;;4.10;2.40;;;;;;;21.25;60.33;100004.56;4994205;28;20291;-79
2022/09/14 05:32:58;;;;;;;2.42;2.22;;;;;;;21.16;59.74;100012.75;4991909;28;20220;-75
2022/09/14 05:35:25;;;;;;;61.78;27.80;;;;;;;21.18;60.28;100010.94;4992359;28;20225;-76
2022/09/14 05:37:53;;;;;;;71.72;32.83;;;;;;;21.34;59.95;100005.19;4976360;28;20218;-78
2022/09/14 05:40:20;;;;;;;2.40;2.30;;;;;;;21.14;58.32;100025.13;4994877;28;20209;-78
2022/09/14 05:42:46;;;;;;;2.45;2.25;;;;;;;21.18;57.86;100016.22;4994157;28;20208;-79
2022/09/14 05:45:13;;;;;;;3.63;2.25;;;;;;;21.21;58.32;100023.16;4994573;28;20209;-79
2022/09/14 05:47:40;;;;;;;4.25;2.10;;;;;;;21.51;57.94;100031.94;4994886;28;20202;-79
2022/09/14 05:50:08;;;;;;;3.20;2.40;;;;;;;21.50;57.78;100027.56;4994362;28;20209;-78
2022/09/14 05:52:35;;;;;;;4.38;3.30;;;;;;;21.62;61.02;100028.03;4994252;28;20225;-78
2022/09/14 05:55:03;;;;;;;6.13;3.05;;;;;;;21.83;59.64;100021.22;4959675;28;20244;-80
2022/09/14 05:57:30;;;;;;;3.42;2.30;;;;;;;21.71;57.98;100033.06;4994332;28;20208;-79
2022/09/14 05:59:57;;;;;;;2.50;2.00;;;;;;;21.26;57.51;100016.81;4993917;28;20202;-79
2022/09/14 06:02:24;;;;;;;2.58;2.38;;;;;;;21.51;57.84;100001.13;4994553;28;20205;-78
2022/09/14 06:04:50;;;;;;;6.78;2.30;;;;;;;21.61;57.01;100033.38;4994529;28;20208;-79
2022/09/14 06:07:17;;;;;;;1.85;1.75;;;;;;;21.54;56.62;100043.28;4994304;28;20205;-80
2022/09/14 06:09:44;;;;;;;1.98;1.88;;;;;;;21.46;56.52;100041.75;4994017;28;20205;-76
2022/09/14 06:12:13;;;;;;;2.30;1.95;;;;;;;21.51;56.76;100042.50;4993989;28;20598;-78
2022/09/14 06:14:41;;;;;;;3.13;2.22;;;;;;;21.41;56.77;100041.88;4994278;28;20709;-80
2022/09/14 06:17:08;;;;;;;2.33;1.95;;;;;;;21.49;56.87;100020.56;4959805;28;20587;-80
2022/09/14 06:19:34;;;;;;;2.70;2.08;;;;;;;21.86;56.13;100037.00;4959570;28;20194;-80
2022/09/14 06:22:01;;;;;;;3.15;2.17;;;;;;;21.86;55.96;100022.94;4994103;28;20201;-79
2022/09/14 06:24:28;;;;;;;2.55;2.10;;;;;;;22.04;55.44;100041.72;4991984;28;20213;-81
2022/09/14 06:26:55;;;;;;;4.68;2.00;;;;;;;22.10;54.87;100038.00;4959490;28;20206;-78
2022/09/14 06:29:23;;;;;;;3.00;2.10;;;;;;;22.18;53.98;100038.63;4958545;28;20200;-78
2022/09/14 06:31:50;;;;;;;2.28;2.13;;;;;;;22.21;54.98;100031.47;4993873;28;20201;-77
2022/09/14 06:34:16;;;;;;;2.38;1.73;;;;;;;22.31;54.06;100033.78;4992256;28;20225;-77
2022/09/14 06:36:43;;;;;;;3.35;1.83;;;;;;;22.30;54.70;100032.91;4993451;28;20209;-78
2022/09/14 06:39:11;;;;;;;4.72;2.40;;;;;;;22.30;54.57;100011.78;4974707;28;20600;-79
2022/09/14 06:41:38;;;;;;;2.50;1.88;;;;;;;22.25;55.05;100029.59;4993066;28;20228;-79
2022/09/14 06:44:04;;;;;;;1.83;1.73;;;;;;;22.28;55.35;100034.75;4993377;28;20212;-79
2022/09/14 06:46:34;;;;;;;2.17;1.90;;;;;;;22.54;54.39;100039.16;4993563;28;20220;-78
2022/09/14 06:49:04;;;;;;;1.92;1.80;;;;;;;22.52;54.21;100041.84;4993250;28;20202;-80
2022/09/14 06:51:32;;;;;;;2.17;1.95;;;;;;;22.79;54.09;100031.28;4990823;28;20206;-81
2022/09/14 06:54:00;;;;;;;4.25;2.42;;;;;;;22.75;54.44;100014.66;4993218;28;20232;-78
2022/09/14 06:56:28;;;;;;;2.67;2.20;;;;;;;23.02;53.50;100039.22;4993298;28;20831;-81
2022/09/14 06:58:55;;;;;;;2.22;2.03;;;;;;;22.96;53.02;100039.47;4993230;28;20259;-80
2022/09/14 07:01:22;;;;;;;1.98;1.88;;;;;;;23.03;52.55;100036.53;4958922;28;20204;-80
2022/09/14 07:03:51;;;;;;;2.05;1.95;;;;;;;23.09;52.89;100030.16;4993097;28;20264;-80
2022/09/14 07:06:21;;;;;;;2.85;2.00;;;;;;;23.21;53.44;100046.44;4975073;28;20204;-80
2022/09/14 07:08:48;;;;;;;2.10;1.90;;;;;;;23.07;52.68;100022.28;4993202;28;20320;-81
2022/09/14 07:11:17;;;;;;;2.55;2.35;;;;;;;23.17;52.28;100006.91;4993101;28;20267;-80
2022/09/14 07:13:45;;;;;;;2.55;2.28;;;;;;;23.56;52.07;100036.31;4992971;28;20256;-76
2022/09/14 07:16:12;;;;;;;2.65;2.42;;;;;;;23.71;52.04;100033.09;4992997;28;20295;-80
2022/09/14 07:18:40;;;;;;;4.13;2.58;;;;;;;23.84;51.06;100030.81;4992797;28;20636;-79
2022/09/14 07:21:10;;;;;;;2.17;2.00;;;;;;;23.74;51.18;100030.31;4992877;28;20214;-80
2022/09/14 07:23:38;;;;;;;2.20;2.10;;;;;;;23.79;51.23;100033.66;4992966;28;20202;-80
2022/09/14 07:26:07;;;;;;;1.67;1.58;;;;;;;23.56;52.02;100023.97;4992665;28;20202;-79
2022/09/14 07:28:35;;;;;;;2.00;1.90;;;;;;;23.82;51.28;100033.53;4992864;28;20263;-80
2022/09/14 07:31:03;;;;;;;5.03;1.90;;;;;;;23.76;50.46;100031.09;4992526;28;20202;-79
2022/09/14 07:33:30;;;;;;;2.78;1.92;;;;;;;23.51;51.26;100007.38;4992950;28;20202;-79
2022/09/14 07:36:05;;;;;;;3.60;2.00;;;;;;;23.83;51.00;100023.81;4992751;28;20229;-81
2022/09/14 07:38:33;;;;;;;3.90;1.83;;;;;;;23.81;51.15;100037.09;4992447;28;20288;-80
2022/09/14 07:41:00;;;;;;;2.10;2.00;;;;;;;23.77;51.18;100030.19;4992432;28;20213;-79
2022/09/14 07:43:27;;;;;;;1.65;1.55;;;;;;;23.53;51.39;99999.41;4992575;28;20206;-80
2022/09/14 07:45:54;;;;;;;2.95;2.08;;;;;;;23.79;49.87;100006.31;4992562;28;20728;-78
2022/09/14 07:48:22;;;;;;;1.90;1.80;;;;;;;23.95;49.76;100025.94;4992661;28;20604;-79
2022/09/14 07:50:58;;;;;;;2.17;1.98;;;;;;;24.18;50.01;100021.47;4992409;28;20197;-79
2022/09/14 07:53:25;;;;;;;2.40;2.03;;;;;;;23.99;49.48;100033.72;4992457;28;20212;-76
2022/09/14 07:55:53;;;;;;;5.60;2.20;;;;;;;24.12;50.03;100032.28;4992126;28;20233;-74
2022/09/14 07:58:21;;;;;;;2.38;2.17;;;;;;;23.59;49.62;99976.19;4992321;28;20209;-76
2022/09/14 08:00:48;;;;;;;2.15;1.98;;;;;;;23.97;50.40;100022.28;4992329;28;20208;-77
2022/09/14 08:03:15;;;;;;;2.08;1.98;;;;;;;24.12;49.76;100023.47;4992350;28;20267;-76
2022/09/14 08:05:42;;;;;;;2.50;2.30;;;;;;;24.35;49.50;100019.91;4992356;28;20201;-77
2022/09/14 08:08:09;;;;;;;3.20;2.20;;;;;;;24.40;49.55;100012.63;4992231;28;20246;-78
2022/09/14 08:10:36;;;;;;;6.20;1.77;;;;;;;24.66;48.99;100033.56;4992104;28;20201;-76
2022/09/14 08:46:52;;;;;;;7.53;1.90;;;;;;;23.52;50.09;99968.53;5088233;27;21427;-74
2022/09/14 08:49:36;;;;;;;3.35;2.05;;;;;;;23.88;50.36;99982.94;5086800;28;20202;-74
2022/09/14 08:52:03;;;;;;;1.88;1.65;;;;;;;24.24;49.44;99985.03;5087433;28;20202;-74
2022/09/14 08:54:32;;;;;;;3.63;2.00;;;;;;;24.48;49.00;99982.19;5087896;28;20194;-71
2022/09/14 08:57:07;;;;;;;1.67;1.55;;;;;;;24.75;47.22;99985.44;5072696;28;20604;-73
2022/09/14 08:59:43;;;;;;;1.92;1.80;;;;;;;24.87;46.88;99978.72;5087546;28;20208;-73
2022/09/14 09:02:36;;;;;;;1.80;1.70;;;;;;;24.84;46.49;99969.13;5087046;28;20245;-73
2022/09/14 09:05:19;;;;;;;1.73;1.63;;;;;;;24.80;46.53;99985.19;5086502;28;20583;-72
2022/09/14 09:07:54;;;;;;;2.53;1.85;;;;;;;24.93;46.39;99981.13;5087897;28;20637;-73
2022/09/14 09:10:22;;;;;;;1.67;1.58;;;;;;;24.96;46.28;99991.59;5087854;28;20297;-73
2022/09/14 09:12:53;;;;;;;6.43;2.03;;;;;;;25.17;45.79;99988.81;5052023;28;20194;-73
2022/09/14 09:15:22;;;;;;;2.00;1.80;;;;;;;25.07;46.01;99995.50;5087564;28;20313;-73
2022/09/14 09:17:54;;;;;;;1.70;1.60;;;;;;;25.05;46.11;99997.31;5087562;28;20207;-73
2022/09/14 09:20:26;;;;;;;1.65;1.55;;;;;;;24.98;45.86;100002.97;5087563;28;20214;-73
2022/09/14 09:22:59;;;;;;;2.80;1.55;;;;;;;25.10;45.53;99992.69;5087546;28;20672;-74
2022/09/14 09:25:33;;;;;;;1.88;1.77;;;;;;;25.16;45.95;99997.69;5068224;28;20198;-73
2022/09/14 09:28:02;;;;;;;1.98;1.80;;;;;;;25.18;46.21;99995.81;5086388;28;20210;-73
2022/09/14 09:30:30;;;;;;;3.95;1.92;;;;;;;25.21;46.39;99983.38;5087204;28;20205;-74
2022/09/14 09:32:58;;;;;;;2.60;2.10;;;;;;;25.38;45.21;99991.41;5087541;28;20287;-72
2022/09/14 09:35:25;;;;;;;10.30;2.03;;;;;;;25.27;45.46;99991.91;5087111;28;20609;-73
2022/09/14 09:37:51;;;;;;;2.03;1.80;;;;;;;25.38;45.29;99994.91;5087340;28;20225;-73
2022/09/14 09:40:26;;;;;;;3.10;1.65;;;;;;;25.23;45.45;99939.88;5087222;28;20198;-74
2022/09/14 09:43:08;;;;;;;2.45;1.80;;;;;;;25.69;44.85;99989.03;5087248;28;20747;-74
2022/09/14 09:45:55;;;;;;;1.50;1.50;;;;;;;25.68;44.67;99989.97;5087179;28;20307;-75
2022/09/14 09:48:27;;;;;;;2.45;1.55;;;;;;;25.79;44.89;99984.97;5087078;28;20202;-74
2022/09/14 09:51:01;;;;;;;4.22;1.98;;;;;;;25.97;44.80;99981.41;5087012;28;20930;-75
2022/09/14 09:53:28;;;;;;;2.97;1.67;;;;;;;25.80;44.12;99973.44;5086973;28;20210;-73
2022/09/14 09:55:56;;;;;;;3.28;2.20;;;;;;;25.95;44.75;99972.69;5086320;28;20230;-74
2022/09/14 09:58:30;;;;;;;2.70;1.80;;;;;;;26.07;44.12;99982.72;5073720;28;20207;-73
2022/09/14 10:00:59;;;;;;;4.30;1.90;;;;;;;26.00;43.56;99983.09;5073253;28;20687;-74
2022/09/14 10:03:33;;;;;;;2.05;1.65;;;;;;;26.15;44.53;99974.31;5073335;28;20207;-73
2022/09/14 10:06:03;;;;;;;1.83;1.73;;;;;;;26.18;43.60;99968.03;5073310;28;20207;-73
2022/09/14 10:08:33;;;;;;;2.95;1.70;;;;;;;26.13;43.74;99939.88;5073421;28;20203;-73
2022/09/14 10:11:01;;;;;;;1.73;1.63;;;;;;;26.24;43.80;99952.63;5046202;28;20249;-74
2022/09/14 10:13:31;;;;;;;2.30;2.10;;;;;;;26.23;43.71;99944.72;5073270;28;20297;-74
2022/09/14 10:16:12;;;;;;;2.88;1.80;;;;;;;26.41;42.78;99965.91;5072971;28;20222;-72
2022/09/14 10:18:45;;;;;;;1.98;1.88;;;;;;;26.42;43.40;99966.78;5037695;28;20199;-73
2022/09/14 10:21:14;;;;;;;5.85;1.88;;;;;;;26.47;43.37;99970.09;5059475;28;20233;-72
2022/09/14 10:23:41;;;;;;;4.22;1.98;;;;;;;26.34;43.67;99937.94;5072896;28;20207;-73
2022/09/14 10:26:35;;;;;;;3.63;1.60;;;;;;;26.45;43.98;99962.16;5072849;28;20630;-74
2022/09/14 10:29:39;;;;;;;1.50;1.50;;;;;;;26.60;43.80;99960.50;5072856;28;20214;-75
2022/09/14 10:32:18;;;;;;;2.00;1.90;;;;;;;26.66;43.89;99965.50;5030785;28;20664;-74
2022/09/14 10:34:46;;;;;;;2.65;1.95;;;;;;;26.63;43.42;99960.34;5030430;28;20204;-76
2022/09/14 10:37:30;;;;;;;2.97;1.80;;;;;;;26.42;43.66;99949.03;5030683;28;20329;-75
2022/09/14 10:40:15;;;;;;;1.95;1.85;;;;;;;26.75;43.49;99959.72;5030661;28;20712;-76
2022/09/14 10:42:54;;;;;;;1.88;1.77;;;;;;;26.90;42.64;99963.34;5030371;28;20208;-76
2022/09/14 10:45:28;;;;;;;2.03;1.92;;;;;;;26.84;42.95;99953.91;5030279;28;20271;-75
2022/09/14 10:48:11;;;;;;;3.63;1.83;;;;;;;26.85;43.05;99947.66;5030389;28;20282;-76
2022/09/14 10:50:49;;;;;;;4.47;1.95;;;;;;;26.82;43.61;99939.84;5030510;28;20215;-77
2022/09/14 10:53:33;;;;;;;1.98;1.88;;;;;;;26.96;43.46;99931.97;5030320;28;20212;-76
2022/09/14 10:56:04;;;;;;;1.88;1.77;;;;;;;27.00;43.17;99941.47;5029817;28;20216;-76
2022/09/14 10:58:54;;;;;;;3.97;1.80;;;;;;;27.14;43.05;99937.22;5014292;28;20196;-76
2022/09/14 11:01:32;;;;;;;1.83;1.73;;;;;;;27.10;42.94;99933.88;5030258;28;20703;-77
2022/09/14 11:04:16;;;;;;;4.43;1.55;;;;;;;27.15;42.83;99934.47;5068673;28;20194;-78
2022/09/14 11:06:57;;;;;;;1.60;1.50;;;;;;;27.21;41.98;99909.31;5072476;28;20260;-76
2022/09/14 11:09:31;;;;;;;1.83;1.70;;;;;;;27.10;42.81;99928.53;5071260;28;20605;-75
2022/09/14 11:12:07;;;;;;;1.80;1.70;;;;;;;27.32;43.04;99917.56;5072200;28;20203;-78
2022/09/14 11:14:49;;;;;;;1.85;1.75;;;;;;;27.41;42.27;99906.38;5071932;28;20202;-75
2022/09/14 11:17:36;;;;;;;1.83;1.73;;;;;;;27.32;43.46;99922.88;5072027;28;20230;-75
2022/09/14 11:20:16;;;;;;;3.25;1.85;;;;;;;27.10;44.81;99924.09;5036556;28;20741;-74
2022/09/14 11:22:51;;;;;;;3.13;1.48;;;;;;;27.16;44.31;99912.22;5071930;28;20659;-76
2022/09/14 11:25:22;;;;;;;3.45;3.17;;;;;;;26.84;45.33;99908.69;5072125;28;20194;-75
2022/09/14 11:27:53;;;;;;;3.25;2.20;;;;;;;26.92;43.13;99911.78;5071787;28;20254;-75
2022/09/14 11:30:22;;;;;;;8.38;1.92;;;;;;;27.03;44.77;99889.91;5071497;28;20209;-76
2022/09/14 11:32:55;;;;;;;4.80;1.95;;;;;;;27.33;43.73;99888.16;5071670;28;20573;-74
2022/09/14 11:35:26;;;;;;;2.40;2.20;;;;;;;27.51;43.54;99896.94;5071418;28;20286;-74
2022/09/14 11:37:59;;;;;;;2.25;1.95;;;;;;;27.43;44.06;99891.19;5053083;28;20195;-75
2022/09/14 11:40:30;;;;;;;6.65;2.20;;;;;;;27.43;45.63;99884.03;5071527;28;20294;-75
2022/09/14 11:43:03;;;;;;;2.10;1.70;;;;;;;27.57;44.49;99880.63;5071552;28;20195;-75
2022/09/14 11:45:37;;;;;;;2.33;1.80;;;;;;;27.42;43.70;99881.47;5071466;28;20698;-75
2022/09/14 11:48:11;;;;;;;2.08;1.83;;;;;;;27.61;45.05;99882.16;5071408;28;20659;-75
2022/09/14 11:50:42;;;;;;;2.03;1.63;;;;;;;27.61;44.60;99875.97;5071364;28;20658;-75
2022/09/14 11:53:13;;;;;;;2.03;1.77;;;;;;;27.63;43.61;99876.72;5071306;28;20666;-75
2022/09/14 11:55:45;;;;;;;2.92;2.22;;;;;;;27.81;42.70;99871.19;5070823;28;21055;-75
2022/09/14 11:58:19;;;;;;;1.90;1.80;;;;;;;27.56;44.18;99855.78;5066863;28;20280;-75
2022/09/14 12:01:05;;;;;;;3.22;2.10;;;;;;;27.47;45.00;99866.97;5047892;28;20210;-74
2022/09/14 12:04:10;;;;;;;1.98;1.88;;;;;;;27.54;45.15;99880.78;4975273;28;20201;-74
2022/09/14 12:06:52;;;;;;;5.40;1.88;;;;;;;27.57;43.60;99859.31;4975116;28;20263;-75
2022/09/14 12:09:48;;;;;;;1.90;1.80;;;;;;;27.76;43.17;99859.06;4977936;28;20258;-75
2022/09/14 12:12:43;;;;;;;2.05;1.95;;;;;;;27.68;43.52;99861.34;4950694;29;20679;-74
2022/09/14 12:15:18;;;;;;;5.25;1.95;;;;;;;27.61;43.88;99842.22;4893533;29;20228;-74
2022/09/14 12:17:45;;;;;;;1.90;1.70;;;;;;;27.60;43.78;99848.47;4893772;29;20228;-74
2022/09/14 12:20:41;;;;;;;3.72;2.10;;;;;;;28.00;42.84;99858.47;4893279;29;20225;-81
2022/09/14 12:23:50;;;;;;;5.13;1.98;;;;;;;27.80;43.83;99860.59;4856270;29;20205;-75